createdAt,value
2018-12-16T00:01:39.784Z,6.10
2018-12-16T00:04:16.655Z,6.10
2018-12-16T00:06:46.190Z,6.10
2018-12-16T00:09:16.003Z,6.20
2018-12-16T00:11:46.793Z,6.20
2018-12-16T00:14:18.338Z,6.20
2018-12-16T00:16:50.022Z,6.10
2018-12-16T00:19:20.349Z,6.20
2018-12-16T00:21:52.055Z,6.20
2018-12-16T00:24:22.507Z,6.20
2018-12-16T00:27:09.511Z,6.20
2018-12-16T00:29:39.982Z,6.20
2018-12-16T00:32:09.533Z,6.10
2018-12-16T00:34:41.087Z,6.10
2018-12-16T00:37:14.437Z,6.10
2018-12-16T00:39:43.924Z,6.10
2018-12-16T00:42:17.178Z,6.10
2018-12-16T00:44:47.037Z,6.20
2018-12-16T00:47:17.104Z,6.10
2018-12-16T00:49:46.947Z,6.10
2018-12-16T00:52:16.705Z,6.20
2018-12-16T00:54:46.955Z,6.20
2018-12-16T00:57:17.547Z,6.20
2018-12-16T00:59:48.125Z,6.20
2018-12-16T01:02:26.059Z,6.20
2018-12-16T01:04:55.426Z,6.20
2018-12-16T01:07:25.596Z,6.20
2018-12-16T01:09:56.169Z,6.20
2018-12-16T01:12:25.543Z,6.20
2018-12-16T01:14:55.029Z,6.20
2018-12-16T01:17:24.844Z,6.20
2018-12-16T01:19:54.597Z,6.20
2018-12-16T01:22:26.450Z,6.20
2018-12-16T01:24:56.551Z,6.20
2018-12-16T01:27:25.888Z,6.20
2018-12-16T01:29:55.819Z,6.20
2018-12-16T01:32:25.837Z,6.30
2018-12-16T01:34:55.563Z,6.30
2018-12-16T01:37:25.450Z,6.30
2018-12-16T01:39:55.191Z,6.30
2018-12-16T01:42:26.316Z,6.30
2018-12-16T01:44:56.419Z,6.30
2018-12-16T01:47:26.156Z,6.30
2018-12-16T01:49:55.636Z,6.40
2018-12-16T01:52:26.404Z,6.40
2018-12-16T01:54:55.976Z,6.40
2018-12-16T01:57:25.382Z,6.40
2018-12-16T01:59:55.112Z,6.40
2018-12-16T02:02:24.996Z,6.40
2018-12-16T02:04:54.515Z,6.40
2018-12-16T02:07:25.899Z,6.40
2018-12-16T02:09:55.403Z,6.40
2018-12-16T02:12:25.755Z,6.40
2018-12-16T02:14:55.167Z,6.40
2018-12-16T02:17:25.364Z,6.40
2018-12-16T02:19:54.864Z,6.40
2018-12-16T02:22:25.283Z,6.40
2018-12-16T02:24:54.825Z,6.40
2018-12-16T02:27:26.279Z,6.50
2018-12-16T02:29:55.791Z,6.50
2018-12-16T02:32:25.866Z,6.50
2018-12-16T02:34:55.976Z,6.50
2018-12-16T02:37:27.243Z,6.50
2018-12-16T02:39:58.851Z,6.50
2018-12-16T02:42:31.415Z,6.50
2018-12-16T02:45:03.001Z,6.50
2018-12-16T02:47:32.463Z,6.60
2018-12-16T02:50:01.988Z,6.60
2018-12-16T02:52:31.766Z,6.60
2018-12-16T02:55:03.935Z,6.60
2018-12-16T02:57:35.735Z,6.60
2018-12-16T03:00:06.969Z,6.60
2018-12-16T03:02:38.211Z,6.70
2018-12-16T03:05:12.207Z,6.70
2018-12-16T03:07:41.727Z,6.70
2018-12-16T03:10:13.834Z,6.70
2018-12-16T03:12:45.156Z,6.70
2018-12-16T03:15:14.800Z,6.70
2018-12-16T03:17:45.217Z,6.60
2018-12-16T03:20:15.515Z,6.60
2018-12-16T03:22:45.451Z,6.70
2018-12-16T03:25:15.577Z,6.70
2018-12-16T03:27:44.907Z,6.70
2018-12-16T03:30:14.616Z,6.70
2018-12-16T03:32:44.065Z,6.70
2018-12-16T03:35:13.999Z,6.70
2018-12-16T03:37:43.946Z,6.70
2018-12-16T03:40:14.278Z,6.70
2018-12-16T03:42:45.231Z,6.70
2018-12-16T03:45:14.890Z,6.70
2018-12-16T03:47:47.365Z,6.70
2018-12-16T03:50:19.064Z,6.70
2018-12-16T03:52:48.567Z,6.70
2018-12-16T03:55:18.664Z,6.70
2018-12-16T03:57:49.926Z,6.70
2018-12-16T04:00:19.648Z,6.70
2018-12-16T04:02:49.288Z,6.70
2018-12-16T04:05:19.140Z,6.70
2018-12-16T04:07:48.640Z,6.70
2018-12-16T04:10:18.086Z,6.70
2018-12-16T04:12:47.551Z,6.70
2018-12-16T04:15:17.072Z,6.60
2018-12-16T04:17:48.106Z,6.60
2018-12-16T04:20:17.458Z,6.60
2018-12-16T04:22:47.769Z,6.70
2018-12-16T04:25:24.983Z,6.60
2018-12-16T04:27:54.885Z,6.60
2018-12-16T04:30:24.749Z,6.60
2018-12-16T04:32:56.467Z,6.60
2018-12-16T04:35:27.420Z,6.60
2018-12-16T04:38:01.361Z,6.60
2018-12-16T04:40:30.940Z,6.50
2018-12-16T04:43:00.327Z,6.50
2018-12-16T04:45:30.259Z,6.50
2018-12-16T04:48:01.499Z,6.50
2018-12-16T04:50:31.004Z,6.50
2018-12-16T04:53:00.570Z,6.50
2018-12-16T04:55:30.008Z,6.50
2018-12-16T04:58:00.433Z,6.50
2018-12-16T05:00:29.936Z,6.50
2018-12-16T05:03:00.456Z,6.50
2018-12-16T05:05:31.116Z,6.50
2018-12-16T05:08:01.290Z,6.50
2018-12-16T05:10:31.891Z,6.50
2018-12-16T05:13:02.388Z,6.50
2018-12-16T05:15:31.884Z,6.50
2018-12-16T05:18:02.253Z,6.50
2018-12-16T05:20:32.796Z,6.50
2018-12-16T05:23:03.741Z,6.50
2018-12-16T05:25:33.644Z,6.50
2018-12-16T05:28:03.113Z,6.60
2018-12-16T05:30:32.747Z,6.60
2018-12-16T05:33:02.875Z,6.60
2018-12-16T05:35:33.654Z,6.60
2018-12-16T05:38:03.058Z,6.50
2018-12-16T05:40:33.184Z,6.50
2018-12-16T05:43:04.727Z,6.50
2018-12-16T05:45:34.245Z,6.50
2018-12-16T05:48:03.675Z,6.50
2018-12-16T05:50:34.584Z,6.50
2018-12-16T05:53:03.985Z,6.50
2018-12-16T05:55:34.325Z,6.50
2018-12-16T05:58:04.134Z,6.50
2018-12-16T06:00:37.015Z,6.50
2018-12-16T06:03:06.974Z,6.50
2018-12-16T06:05:38.538Z,6.50
2018-12-16T06:08:07.920Z,6.50
2018-12-16T06:10:39.052Z,6.50
2018-12-16T06:13:12.984Z,6.50
2018-12-16T06:15:43.914Z,6.50
2018-12-16T06:18:13.498Z,6.50
2018-12-16T06:20:42.884Z,6.50
2018-12-16T06:23:16.815Z,6.50
2018-12-16T06:25:48.491Z,6.50
2018-12-16T06:28:17.971Z,6.50
2018-12-16T06:30:49.943Z,6.50
2018-12-16T06:33:20.955Z,6.50
2018-12-16T06:35:50.317Z,6.50
2018-12-16T06:38:20.340Z,6.50
2018-12-16T06:40:50.159Z,6.50
2018-12-16T06:43:19.906Z,6.50
2018-12-16T06:45:49.773Z,6.50
2018-12-16T06:48:19.279Z,6.50
2018-12-16T06:50:53.119Z,6.50
2018-12-16T06:53:27.724Z,6.50
2018-12-16T06:55:57.146Z,6.50
2018-12-16T06:58:29.719Z,6.50
2018-12-16T07:01:00.071Z,6.50
2018-12-16T07:03:30.553Z,6.60
2018-12-16T07:06:07.669Z,6.60
2018-12-16T07:08:39.966Z,6.50
2018-12-16T07:11:10.359Z,6.50
2018-12-16T07:13:41.520Z,6.50
2018-12-16T07:16:11.958Z,6.50
2018-12-16T07:18:42.257Z,6.50
2018-12-16T07:21:11.756Z,6.50
2018-12-16T07:23:44.022Z,6.50
2018-12-16T07:26:24.840Z,6.50
2018-12-16T07:28:55.086Z,6.50
2018-12-16T07:31:26.240Z,6.50
2018-12-16T07:33:55.640Z,6.40
2018-12-16T07:36:25.192Z,6.40
2018-12-16T07:38:54.908Z,6.40
2018-12-16T07:41:24.460Z,6.40
2018-12-16T07:43:54.978Z,6.40
2018-12-16T07:46:30.349Z,6.40
2018-12-16T07:49:01.074Z,6.40
2018-12-16T07:51:31.801Z,6.40
2018-12-16T07:54:03.433Z,6.40
2018-12-16T07:56:35.188Z,6.40
2018-12-16T07:59:04.626Z,6.40
2018-12-16T08:01:42.106Z,6.40
2018-12-16T08:04:11.900Z,6.40
2018-12-16T08:06:42.312Z,6.30
2018-12-16T08:09:14.399Z,6.30
2018-12-16T08:11:43.875Z,6.30
2018-12-16T08:14:13.614Z,6.30
2018-12-16T08:16:45.416Z,6.30
2018-12-16T08:19:15.429Z,6.30
2018-12-16T08:21:44.974Z,6.30
2018-12-16T08:24:15.056Z,6.30
2018-12-16T08:26:44.890Z,6.30
2018-12-16T08:29:16.072Z,6.30
2018-12-16T08:31:45.924Z,6.30
2018-12-16T08:34:16.314Z,6.30
2018-12-16T08:36:45.804Z,6.30
2018-12-16T08:39:15.264Z,6.30
2018-12-16T08:41:45.404Z,6.30
2018-12-16T08:44:17.257Z,6.30
2018-12-16T08:46:49.294Z,6.30
2018-12-16T08:49:20.638Z,6.30
2018-12-16T08:51:52.609Z,6.30
2018-12-16T08:54:30.172Z,6.30
2018-12-16T08:57:01.446Z,6.30
2018-12-16T08:59:32.979Z,6.30
2018-12-16T09:02:05.603Z,6.30
2018-12-16T09:04:36.851Z,6.30
2018-12-16T09:07:07.382Z,6.30
2018-12-16T09:09:37.249Z,6.30
2018-12-16T09:12:08.652Z,6.40
2018-12-16T09:14:46.367Z,6.40
2018-12-16T09:17:16.414Z,6.30
2018-12-16T09:19:45.894Z,6.30
2018-12-16T09:22:15.404Z,6.40
2018-12-16T09:24:47.103Z,6.30
2018-12-16T09:27:20.871Z,6.40
2018-12-16T09:29:53.026Z,6.40
2018-12-16T09:32:23.448Z,6.30
2018-12-16T09:34:54.839Z,6.40
2018-12-16T09:37:24.395Z,6.40
2018-12-16T09:39:53.750Z,6.40
2018-12-16T09:42:23.262Z,6.30
2018-12-16T09:44:53.622Z,6.40
2018-12-16T09:47:24.867Z,6.40
2018-12-16T09:49:55.152Z,6.40
2018-12-16T09:52:24.740Z,6.40
2018-12-16T09:54:57.876Z,6.40
2018-12-16T09:57:28.965Z,6.40
2018-12-16T10:00:00.269Z,6.40
2018-12-16T10:02:32.092Z,6.40
2018-12-16T10:05:01.919Z,6.40
2018-12-16T10:07:46.827Z,6.40
2018-12-16T10:10:18.899Z,6.40
2018-12-16T10:12:48.577Z,6.40
2018-12-16T10:15:20.451Z,6.40
2018-12-16T10:17:49.948Z,6.40
2018-12-16T10:20:19.567Z,6.40
2018-12-16T10:22:49.098Z,6.40
2018-12-16T10:25:23.537Z,6.40
2018-12-16T10:27:54.109Z,6.40
2018-12-16T10:30:24.072Z,6.50
2018-12-16T10:32:56.914Z,6.40
2018-12-16T10:35:28.867Z,6.50
2018-12-16T10:38:00.996Z,6.40
2018-12-16T10:40:32.082Z,6.40
2018-12-16T10:43:02.576Z,6.40
2018-12-16T10:45:32.916Z,6.40
2018-12-16T10:48:02.357Z,6.40
2018-12-16T10:50:33.463Z,6.40
2018-12-16T10:53:04.014Z,6.50
2018-12-16T10:55:37.977Z,6.40
2018-12-16T10:58:09.546Z,6.40
2018-12-16T11:00:44.281Z,6.40
2018-12-16T11:03:16.680Z,6.40
2018-12-16T11:05:46.685Z,6.40
2018-12-16T11:08:18.323Z,6.40
2018-12-16T11:10:48.305Z,6.40
2018-12-16T11:13:23.856Z,6.40
2018-12-16T11:15:53.248Z,6.40
2018-12-16T11:18:23.981Z,6.40
2018-12-16T11:20:54.083Z,6.40
2018-12-16T11:23:25.749Z,6.40
2018-12-16T11:25:58.230Z,6.40
2018-12-16T11:28:32.111Z,6.40
2018-12-16T11:31:01.653Z,6.40
2018-12-16T11:33:32.096Z,6.40
2018-12-16T11:36:01.523Z,6.40
2018-12-16T11:38:33.027Z,6.40
2018-12-16T11:41:05.094Z,6.50
2018-12-16T11:43:34.617Z,6.50
2018-12-16T11:46:04.407Z,6.50
2018-12-16T11:48:39.830Z,6.50
2018-12-16T11:51:10.031Z,6.50
2018-12-16T11:53:44.503Z,6.50
2018-12-16T11:56:14.504Z,6.50
2018-12-16T11:58:45.428Z,6.50
2018-12-16T12:01:15.292Z,6.50
2018-12-16T12:03:50.926Z,6.50
2018-12-16T12:06:20.359Z,6.50
2018-12-16T12:08:51.716Z,6.50
2018-12-16T12:11:22.358Z,6.50
2018-12-16T12:13:51.915Z,6.50
2018-12-16T12:19:22.906Z,6.50
2018-12-16T12:21:53.775Z,6.50
2018-12-16T12:24:23.535Z,6.50
2018-12-16T12:26:54.019Z,6.50
2018-12-16T12:29:23.542Z,6.50
2018-12-16T12:31:56.168Z,6.50
2018-12-16T12:34:26.892Z,6.50
2018-12-16T12:36:56.329Z,6.50
2018-12-16T12:39:25.920Z,6.50
2018-12-16T12:41:56.450Z,6.50
2018-12-16T12:44:27.535Z,6.50
2018-12-16T12:47:00.070Z,6.50
2018-12-16T12:49:32.035Z,6.50
2018-12-16T12:52:03.674Z,6.50
2018-12-16T12:54:33.755Z,6.50
2018-12-16T12:57:04.767Z,6.50
2018-12-16T12:59:44.463Z,6.50
2018-12-16T13:02:15.355Z,6.50
2018-12-16T13:04:48.225Z,6.50
2018-12-16T13:07:20.073Z,6.50
2018-12-16T13:09:52.528Z,6.50
2018-12-16T13:12:22.922Z,6.50
2018-12-16T13:14:53.203Z,6.50
2018-12-16T13:17:26.311Z,6.50
2018-12-16T13:20:02.366Z,6.50
2018-12-16T13:22:34.723Z,6.50
2018-12-16T13:25:21.023Z,6.50
2018-12-16T13:27:50.423Z,6.50
2018-12-16T13:30:19.797Z,6.50
2018-12-16T13:32:49.164Z,6.50
2018-12-16T13:35:20.785Z,6.50
2018-12-16T13:37:59.187Z,6.50
2018-12-16T13:40:29.659Z,6.50
2018-12-16T13:42:59.060Z,6.50
2018-12-16T13:45:28.756Z,6.50
2018-12-16T13:47:59.130Z,6.50
2018-12-16T13:50:32.982Z,6.50
2018-12-16T13:53:07.254Z,6.50
2018-12-16T13:55:40.881Z,6.40
2018-12-16T13:58:08.306Z,6.50
2018-12-16T14:00:38.587Z,6.50
2018-12-16T14:03:07.945Z,6.50
2018-12-16T14:05:46.456Z,6.50
2018-12-16T14:08:14.035Z,6.50
2018-12-16T14:10:43.461Z,6.50
2018-12-16T14:13:14.993Z,6.50
2018-12-16T14:15:52.297Z,6.50
2018-12-16T14:18:20.982Z,6.50
2018-12-16T14:23:32.606Z,6.50
2018-12-16T14:26:02.139Z,6.50
2018-12-16T14:28:31.514Z,6.50
2018-12-16T14:31:00.929Z,6.50
2018-12-16T14:33:30.380Z,6.50
2018-12-16T14:35:59.829Z,6.50
2018-12-16T14:38:31.038Z,6.50
2018-12-16T14:41:00.990Z,6.50
2018-12-16T14:43:30.500Z,6.50
2018-12-16T14:46:01.597Z,6.50
2018-12-16T14:48:33.778Z,6.50
2018-12-16T14:51:03.220Z,6.50
2018-12-16T14:53:34.154Z,6.50
2018-12-16T14:56:05.476Z,6.50
2018-12-16T14:58:38.547Z,6.50
2018-12-16T15:01:08.232Z,6.50
2018-12-16T15:03:38.414Z,6.50
2018-12-16T15:06:10.636Z,6.50
2018-12-16T15:08:42.512Z,6.50
2018-12-16T15:11:11.884Z,6.50
2018-12-16T15:13:41.265Z,6.50
2018-12-16T15:16:12.377Z,6.60
2018-12-16T15:18:41.995Z,6.60
2018-12-16T15:21:11.469Z,6.60
2018-12-16T15:23:46.925Z,6.60
2018-12-16T15:26:17.178Z,6.60
2018-12-16T15:28:47.010Z,6.60
2018-12-16T15:31:16.758Z,6.60
2018-12-16T15:33:48.017Z,6.60
2018-12-16T15:36:18.037Z,6.60
2018-12-16T15:38:47.450Z,6.60
2018-12-16T15:41:16.890Z,6.60
2018-12-16T15:43:47.125Z,6.70
2018-12-16T15:46:18.928Z,6.70
2018-12-16T15:48:48.462Z,6.70
2018-12-16T15:51:19.040Z,6.70
2018-12-16T15:53:48.973Z,6.60
2018-12-16T15:56:21.646Z,6.70
2018-12-16T15:58:52.384Z,6.70
2018-12-16T16:01:22.864Z,6.70
2018-12-16T16:03:52.323Z,6.70
2018-12-16T16:06:22.011Z,6.70
2018-12-16T16:08:52.370Z,6.70
2018-12-16T16:11:22.730Z,6.70
2018-12-16T16:13:53.264Z,6.70
2018-12-16T16:16:23.511Z,6.70
2018-12-16T16:18:53.276Z,6.70
2018-12-16T16:21:23.652Z,6.70
2018-12-16T16:23:58.229Z,6.70
2018-12-16T16:26:27.750Z,6.70
2018-12-16T16:28:57.862Z,6.70
2018-12-16T16:31:28.121Z,6.70
2018-12-16T16:33:57.738Z,6.70
2018-12-16T16:36:30.240Z,6.70
2018-12-16T16:39:00.926Z,6.70
2018-12-16T16:41:31.924Z,6.70
2018-12-16T16:44:06.494Z,6.70
2018-12-16T16:46:37.911Z,6.70
2018-12-16T16:49:07.388Z,6.70
2018-12-16T16:51:37.001Z,6.70
2018-12-16T16:54:07.157Z,6.70
2018-12-16T16:56:36.874Z,6.70
2018-12-16T16:59:07.866Z,6.70
2018-12-16T17:01:37.372Z,6.70
2018-12-16T17:04:07.769Z,6.70
2018-12-16T17:06:38.616Z,6.70
2018-12-16T17:09:09.741Z,6.70
2018-12-16T17:11:42.988Z,6.70
2018-12-16T17:14:14.858Z,6.70
2018-12-16T17:16:45.458Z,6.70
2018-12-16T17:19:16.632Z,6.70
2018-12-16T17:21:47.650Z,6.70
2018-12-16T17:24:18.283Z,6.70
2018-12-16T17:26:49.766Z,6.70
2018-12-16T17:29:20.879Z,6.70
2018-12-16T17:31:50.451Z,6.70
2018-12-16T17:34:19.929Z,6.70
2018-12-16T17:36:53.928Z,6.70
2018-12-16T17:39:24.624Z,6.70
2018-12-16T17:41:55.810Z,6.60
2018-12-16T17:44:25.410Z,6.70
2018-12-16T17:47:08.200Z,6.70
2018-12-16T17:50:04.879Z,6.70
2018-12-16T17:52:35.467Z,6.60
2018-12-16T17:55:06.889Z,6.60
2018-12-16T17:57:37.748Z,6.60
2018-12-16T18:00:11.485Z,6.70
2018-12-16T18:09:33.533Z,6.30
2018-12-16T18:12:03.972Z,6.30
2018-12-16T18:14:34.698Z,6.40
2018-12-16T18:17:08.597Z,6.50
2018-12-16T18:19:39.158Z,6.50
2018-12-16T18:22:14.181Z,6.50
2018-12-16T18:24:44.345Z,6.60
2018-12-16T18:27:13.957Z,6.60
2018-12-16T18:29:44.501Z,6.60
2018-12-16T18:32:14.545Z,6.60
2018-12-16T18:34:45.132Z,6.60
2018-12-16T18:37:14.770Z,6.60
2018-12-16T18:39:44.459Z,6.70
2018-12-16T18:42:14.363Z,6.70
2018-12-16T18:44:44.334Z,6.70
2018-12-16T18:47:14.704Z,6.70
2018-12-16T18:49:44.250Z,6.70
2018-12-16T18:52:14.632Z,6.70
2018-12-16T18:54:46.934Z,6.70
2018-12-16T18:57:19.885Z,6.70
2018-12-16T18:59:52.265Z,6.70
2018-12-16T19:02:23.972Z,6.70
2018-12-16T19:04:56.226Z,6.70
2018-12-16T19:07:27.635Z,6.70
2018-12-16T19:09:59.095Z,6.70
2018-12-16T19:12:31.771Z,6.70
2018-12-16T19:15:02.345Z,6.70
2018-12-16T19:17:33.075Z,6.80
2018-12-16T19:20:04.788Z,6.80
2018-12-16T19:22:35.728Z,6.80
2018-12-16T19:25:08.755Z,6.80
2018-12-16T19:27:38.736Z,6.80
2018-12-16T19:30:12.442Z,6.70
2018-12-16T19:32:43.149Z,6.80
2018-12-16T19:35:13.567Z,6.80
2018-12-16T19:37:45.016Z,6.80
2018-12-16T19:40:15.090Z,6.80
2018-12-16T19:42:46.808Z,6.80
2018-12-16T19:45:17.408Z,6.80
2018-12-16T19:47:49.672Z,6.80
2018-12-16T19:50:18.563Z,6.80
2018-12-16T19:52:48.989Z,6.80
2018-12-16T19:55:21.645Z,6.80
2018-12-16T19:57:52.898Z,6.80
2018-12-16T20:00:23.990Z,6.80
2018-12-16T20:02:53.796Z,6.80
2018-12-16T20:05:23.781Z,6.80
2018-12-16T20:07:54.290Z,6.90
2018-12-16T20:10:24.374Z,6.80
2018-12-16T20:12:53.852Z,6.90
2018-12-16T20:15:24.200Z,6.90
2018-12-16T20:20:31.918Z,6.90
2018-12-16T20:23:02.935Z,6.90
2018-12-16T20:25:34.026Z,6.90
2018-12-16T20:30:40.022Z,6.90
2018-12-16T20:33:15.087Z,6.90
2018-12-16T20:35:48.959Z,6.90
2018-12-16T20:38:19.487Z,6.90
2018-12-16T20:40:49.234Z,6.90
2018-12-16T20:43:18.921Z,6.90
2018-12-16T20:45:49.930Z,6.90
2018-12-16T20:48:21.438Z,6.90
2018-12-16T20:50:53.122Z,6.90
2018-12-16T20:53:22.555Z,6.90
2018-12-16T20:55:53.674Z,6.90
2018-12-16T20:58:24.779Z,6.90
2018-12-16T21:00:55.408Z,6.90
2018-12-16T21:03:25.086Z,7.00
2018-12-16T21:05:56.281Z,7.00
2018-12-16T21:08:27.104Z,7.00
2018-12-16T21:13:50.157Z,7.00
2018-12-16T21:16:28.179Z,7.00
2018-12-16T21:19:01.587Z,7.00
2018-12-16T21:21:34.013Z,7.00
2018-12-16T21:24:03.785Z,7.00
2018-12-16T21:26:34.191Z,7.00
2018-12-16T21:29:03.630Z,7.00
2018-12-16T21:31:35.305Z,7.00
2018-12-16T21:34:06.137Z,7.00
2018-12-16T21:36:35.790Z,7.00
2018-12-16T21:39:07.891Z,7.00
2018-12-16T21:41:37.292Z,7.00
2018-12-16T21:44:08.284Z,7.00
2018-12-16T21:46:39.393Z,7.00
2018-12-16T21:49:12.916Z,7.00
2018-12-16T21:51:43.363Z,7.00
2018-12-16T21:54:13.379Z,7.00
2018-12-16T21:56:44.942Z,7.00
2018-12-16T21:59:15.225Z,7.00
2018-12-16T22:01:44.592Z,7.00
2018-12-16T22:04:13.977Z,7.00
2018-12-16T22:06:43.439Z,7.00
2018-12-16T22:09:13.147Z,7.00
2018-12-16T22:11:42.738Z,7.10
2018-12-16T22:14:12.219Z,7.10
2018-12-16T22:16:42.338Z,7.10
2018-12-16T22:19:12.943Z,7.10
2018-12-16T22:21:43.177Z,7.10
2018-12-16T22:24:12.689Z,7.10
2018-12-16T22:26:42.688Z,7.10
2018-12-16T22:29:13.071Z,7.10
2018-12-16T22:31:42.619Z,7.10
2018-12-16T22:34:12.138Z,7.10
2018-12-16T22:36:47.363Z,7.10
2018-12-16T22:39:16.901Z,7.10
2018-12-16T22:41:51.733Z,7.10
2018-12-16T22:44:21.932Z,7.10
2018-12-16T22:46:55.152Z,7.10
2018-12-16T22:49:24.632Z,7.10
2018-12-16T22:51:56.240Z,7.10
2018-12-16T22:54:25.670Z,7.10
2018-12-16T22:56:55.122Z,7.10
2018-12-16T22:59:25.867Z,7.10
2018-12-16T23:01:59.373Z,7.10
2018-12-16T23:04:28.832Z,7.10
2018-12-16T23:07:02.669Z,7.20
2018-12-16T23:09:32.993Z,7.20
2018-12-16T23:12:03.959Z,7.20
2018-12-16T23:14:33.335Z,7.20
2018-12-16T23:17:04.139Z,7.20
2018-12-16T23:19:34.367Z,7.20
2018-12-16T23:22:07.392Z,7.20
2018-12-16T23:24:40.967Z,7.20
2018-12-16T23:27:13.780Z,7.20
2018-12-16T23:29:43.892Z,7.20
2018-12-16T23:32:14.627Z,7.20
2018-12-16T23:34:45.675Z,7.20
2018-12-16T23:37:15.102Z,7.20
2018-12-16T23:39:44.673Z,7.20
2018-12-16T23:42:14.079Z,7.20
2018-12-16T23:44:43.459Z,7.20
2018-12-16T23:47:14.581Z,7.30
2018-12-16T23:49:43.930Z,7.30
2018-12-16T23:52:13.797Z,7.30
2018-12-16T23:54:44.525Z,7.30
2018-12-16T23:57:14.671Z,7.30
2018-12-16T23:59:44.619Z,7.30
